Time;durP1;ratioP1;P1;durP2;ratioP2;P2;SDS_P1;SDS_P2;PMS_P1;PMS_P2;Temp;Humidity;BMP_temperature;BMP_pressure;BME280_temperature;BME280_humidity;BME280_pressure;Samples;Min_cycle;Max_cycle;Signal;HPM_P1;HPM_P2
2023/01/25 00:00:17;;;;;;;39.85;18.52;;;5.20;99.90;;;;;;4956583;28;20053;-88
2023/01/25 00:02:43;;;;;;;35.88;17.98;;;5.30;99.90;;;;;;4956465;28;20051;-88
2023/01/25 00:05:09;;;;;;;38.13;19.33;;;5.30;99.90;;;;;;4957282;28;20042;-89
2023/01/25 00:07:35;;;;;;;43.70;20.63;;;5.30;99.90;;;;;;4956447;28;20054;-89
2023/01/25 00:10:00;;;;;;;38.38;19.88;;;5.30;99.90;;;;;;4955609;28;20023;-88
2023/01/25 00:12:26;;;;;;;43.08;20.15;;;5.30;99.90;;;;;;4956160;28;20038;-87
2023/01/25 00:14:51;;;;;;;34.78;17.75;;;5.40;99.90;;;;;;4956287;28;20042;-88
2023/01/25 00:17:17;;;;;;;33.97;17.27;;;5.40;99.90;;;;;;4959573;28;20388;-88
2023/01/25 00:19:43;;;;;;;31.67;16.20;;;5.50;99.90;;;;;;4959692;28;20420;-88
2023/01/25 00:22:11;;;;;;;23.23;12.63;;;5.50;99.90;;;;;;4959924;28;20117;-87
2023/01/25 00:24:37;;;;;;;26.58;13.43;;;5.60;99.90;;;;;;4960508;28;20035;-89
2023/01/25 00:27:06;;;;;;;27.25;13.70;;;5.60;99.90;;;;;;4959918;28;20090;-88
2023/01/25 00:29:31;;;;;;;27.92;14.40;;;5.60;99.90;;;;;;4959491;28;20182;-91
2023/01/25 00:32:27;;;;;;;29.15;14.63;;;5.60;99.90;;;;;;4959625;28;20125;-89
2023/01/25 00:34:57;;;;;;;29.63;14.98;;;5.60;99.90;;;;;;4959779;28;20491;-89
2023/01/25 00:37:38;;;;;;;32.78;14.82;;;5.60;99.90;;;;;;4959884;28;20099;-88
2023/01/25 00:40:05;;;;;;;29.67;16.20;;;5.60;99.90;;;;;;4959963;28;20027;-89
2023/01/25 00:42:31;;;;;;;30.60;15.80;;;5.60;99.90;;;;;;4959908;28;20039;-88
2023/01/25 00:44:56;;;;;;;31.75;15.70;;;5.60;99.90;;;;;;4959345;28;20118;-89
2023/01/25 00:47:22;;;;;;;32.97;16.65;;;5.60;99.90;;;;;;4959892;28;20038;-88
2023/01/25 00:49:49;;;;;;;30.05;15.23;;;5.50;99.90;;;;;;4960125;28;20039;-88
2023/01/25 00:52:14;;;;;;;29.80;15.75;;;5.60;99.90;;;;;;4959111;28;20054;-88
2023/01/25 00:54:40;;;;;;;33.30;16.60;;;5.60;99.90;;;;;;4959820;28;20059;-88
2023/01/25 00:57:06;;;;;;;29.38;14.77;;;5.60;99.90;;;;;;4959482;28;20079;-88
2023/01/25 00:59:32;;;;;;;29.25;15.75;;;5.60;99.90;;;;;;4958961;28;20027;-88
2023/01/25 01:01:58;;;;;;;32.10;16.08;;;5.60;99.90;;;;;;4958788;28;20062;-88
2023/01/25 01:04:23;;;;;;;31.73;16.23;;;5.60;99.90;;;;;;4959503;28;20042;-88
2023/01/25 01:06:53;;;;;;;30.65;15.63;;;5.60;99.90;;;;;;4959501;28;20023;-89
2023/01/25 01:09:23;;;;;;;36.80;15.48;;;5.60;99.90;;;;;;4959406;28;20034;-88
2023/01/25 01:11:52;;;;;;;32.15;15.60;;;5.60;99.90;;;;;;4959112;28;20053;-89
2023/01/25 01:14:19;;;;;;;33.45;16.20;;;5.60;99.90;;;;;;4963413;28;20026;-89
2023/01/25 01:16:44;;;;;;;30.92;15.20;;;5.60;99.90;;;;;;4959738;28;20030;-88
2023/01/25 01:19:10;;;;;;;28.63;15.25;;;5.60;99.90;;;;;;4959287;28;20049;-88
2023/01/25 01:21:36;;;;;;;28.60;14.90;;;5.60;99.90;;;;;;4958734;28;20392;-88
2023/01/25 01:24:02;;;;;;;30.80;15.75;;;5.50;99.90;;;;;;4959145;28;20042;-88
2023/01/25 01:26:31;;;;;;;41.38;16.92;;;5.50;99.90;;;;;;4958651;28;20031;-87
2023/01/25 01:28:58;;;;;;;30.75;15.63;;;5.50;99.90;;;;;;4958737;28;20089;-90
2023/01/25 01:31:24;;;;;;;35.05;15.95;;;5.50;99.90;;;;;;4958463;28;20030;-90
2023/01/25 01:33:55;;;;;;;33.13;14.88;;;5.50;99.90;;;;;;4959339;28;20392;-88
2023/01/25 01:36:24;;;;;;;33.75;15.45;;;5.50;99.90;;;;;;4959247;28;20027;-88
2023/01/25 01:38:50;;;;;;;31.02;14.85;;;5.40;99.90;;;;;;4959066;28;20031;-88
2023/01/25 01:41:16;;;;;;;27.38;14.50;;;5.40;99.90;;;;;;4958844;28;20039;-87
2023/01/25 01:43:42;;;;;;;26.17;13.52;;;5.40;99.90;;;;;;4958963;28;20043;-87
2023/01/25 01:46:23;;;;;;;29.48;14.15;;;5.40;99.90;;;;;;4974630;28;20042;-86
2023/01/25 01:48:57;;;;;;;28.45;13.65;;;5.30;99.90;;;;;;4958083;28;20027;-88
2023/01/25 01:51:25;;;;;;;23.13;12.30;;;5.30;99.90;;;;;;4958305;28;20031;-88
2023/01/25 01:54:20;;;;;;;26.83;14.65;;;5.20;99.90;;;;;;4958258;28;20073;-88
2023/01/25 01:56:58;;;;;;;26.27;13.20;;;5.20;99.90;;;;;;4957049;28;20046;-87
2023/01/25 01:59:30;;;;;;;23.52;12.55;;;5.20;99.90;;;;;;4957825;28;20019;-90
2023/01/25 02:01:55;;;;;;;28.02;12.73;;;5.10;99.90;;;;;;4958109;28;20018;-87
2023/01/25 02:04:23;;;;;;;26.73;13.10;;;5.10;99.90;;;;;;4958638;28;20031;-87
2023/01/25 02:07:03;;;;;;;27.23;12.48;;;5.10;99.90;;;;;;4958434;28;20023;-86
2023/01/25 02:09:31;;;;;;;25.98;12.65;;;5.00;99.90;;;;;;4962286;28;20252;-88
2023/01/25 02:11:58;;;;;;;22.35;11.30;;;5.00;99.90;;;;;;4958602;28;20027;-88
2023/01/25 02:14:28;;;;;;;24.42;11.60;;;4.90;99.90;;;;;;4957524;28;20034;-87
2023/01/25 02:16:53;;;;;;;22.05;11.63;;;4.90;99.90;;;;;;4957468;28;20018;-87
2023/01/25 02:19:38;;;;;;;20.92;11.05;;;4.80;99.90;;;;;;4957654;28;20042;-89
2023/01/25 02:22:09;;;;;;;24.50;12.68;;;4.80;99.90;;;;;;4974942;28;20113;-88
2023/01/25 02:24:38;;;;;;;23.20;11.32;;;4.80;99.90;;;;;;4957694;28;20550;-88
2023/01/25 02:27:04;;;;;;;21.42;10.73;;;4.70;99.90;;;;;;4957984;28;20033;-88
2023/01/25 02:29:30;;;;;;;19.85;10.18;;;4.70;99.90;;;;;;4957532;28;20027;-89
2023/01/25 02:32:02;;;;;;;18.38;9.65;;;4.60;99.90;;;;;;4957519;28;20023;-90
2023/01/25 02:34:28;;;;;;;22.13;11.52;;;4.60;99.90;;;;;;4957824;28;20125;-89
2023/01/25 02:36:54;;;;;;;20.00;9.88;;;4.60;99.90;;;;;;4957525;28;20069;-88
2023/01/25 02:39:22;;;;;;;23.92;10.48;;;4.50;99.90;;;;;;4957726;28;20336;-88
2023/01/25 02:41:48;;;;;;;27.70;11.20;;;4.50;99.90;;;;;;4957944;28;20055;-87
2023/01/25 02:44:18;;;;;;;24.58;10.95;;;4.50;99.90;;;;;;4964441;28;20035;-87
2023/01/25 02:46:45;;;;;;;20.77;10.68;;;4.40;99.90;;;;;;4958197;28;20031;-88
2023/01/25 02:49:11;;;;;;;22.45;9.27;;;4.40;99.90;;;;;;4956971;28;20035;-88
2023/01/25 02:51:43;;;;;;;18.60;9.68;;;4.40;99.90;;;;;;4956957;28;20118;-87
2023/01/25 02:54:11;;;;;;;20.35;9.48;;;4.40;99.90;;;;;;4957017;28;20046;-89
2023/01/25 02:56:39;;;;;;;21.05;9.23;;;4.30;99.90;;;;;;4957176;28;20237;-89
2023/01/25 02:59:05;;;;;;;18.80;8.93;;;4.30;99.90;;;;;;4956899;28;20389;-89
2023/01/25 03:01:32;;;;;;;18.73;8.75;;;4.30;99.90;;;;;;4956809;28;20475;-88
2023/01/25 03:03:58;;;;;;;16.73;8.80;;;4.20;99.90;;;;;;4956574;28;20132;-87
2023/01/25 03:06:23;;;;;;;21.02;9.10;;;4.20;99.90;;;;;;4957361;28;20063;-87
2023/01/25 03:08:49;;;;;;;18.52;8.57;;;4.20;99.90;;;;;;4957123;28;20022;-88
2023/01/25 03:11:15;;;;;;;20.23;9.82;;;4.20;99.90;;;;;;4957724;28;20023;-89
2023/01/25 03:13:40;;;;;;;18.33;8.32;;;4.20;99.90;;;;;;4958368;28;20023;-87
2023/01/25 03:16:09;;;;;;;15.45;8.13;;;4.10;99.90;;;;;;4957810;28;20484;-87
2023/01/25 03:18:35;;;;;;;15.95;7.70;;;4.10;99.90;;;;;;4957842;28;20027;-86
2023/01/25 03:21:20;;;;;;;15.90;6.45;;;4.10;99.90;;;;;;4958007;28;20026;-87
2023/01/25 03:23:47;;;;;;;14.68;7.47;;;4.10;99.90;;;;;;4975182;28;20039;-87
2023/01/25 03:26:14;;;;;;;13.60;5.18;;;4.00;99.90;;;;;;4957443;28;20027;-88
2023/01/25 03:28:41;;;;;;;15.80;7.32;;;4.00;99.90;;;;;;4957548;28;20106;-87
2023/01/25 03:31:08;;;;;;;16.60;8.20;;;4.00;99.90;;;;;;4956546;28;20031;-88
2023/01/25 03:33:34;;;;;;;12.30;6.25;;;4.00;99.90;;;;;;4956874;28;20031;-87
2023/01/25 03:36:00;;;;;;;10.98;5.80;;;4.00;99.90;;;;;;4956848;28;20034;-88
2023/01/25 03:38:26;;;;;;;8.40;4.13;;;3.90;99.90;;;;;;4956686;28;20153;-87
2023/01/25 03:40:52;;;;;;;10.07;4.50;;;3.90;99.90;;;;;;4956595;28;20022;-87
2023/01/25 03:43:19;;;;;;;10.30;3.08;;;4.00;99.90;;;;;;4956747;28;20038;-87
2023/01/25 03:45:45;;;;;;;7.60;4.05;;;4.10;99.90;;;;;;4955660;28;20118;-89
2023/01/25 03:48:12;;;;;;;7.03;4.15;;;4.10;99.90;;;;;;4956293;28;20098;-88
2023/01/25 03:50:37;;;;;;;7.82;3.97;;;4.20;99.90;;;;;;4958334;28;20027;-87
2023/01/25 03:53:09;;;;;;;8.30;3.50;;;4.30;99.90;;;;;;4960924;28;20035;-87
2023/01/25 03:55:34;;;;;;;6.70;3.85;;;4.30;99.90;;;;;;4959213;28;20093;-88
2023/01/25 03:58:01;;;;;;;7.60;3.88;;;4.30;99.90;;;;;;4960518;28;20452;-87
2023/01/25 04:00:26;;;;;;;7.03;3.90;;;4.30;99.90;;;;;;4960224;28;20030;-88
2023/01/25 04:02:52;;;;;;;12.30;5.80;;;4.30;99.90;;;;;;4959864;28;20057;-88
2023/01/25 04:05:18;;;;;;;9.95;5.13;;;4.30;99.90;;;;;;4960024;28;20353;-88
2023/01/25 04:07:44;;;;;;;9.77;5.00;;;4.30;99.90;;;;;;4960456;28;20054;-89
2023/01/25 04:10:10;;;;;;;10.43;5.25;;;4.20;99.90;;;;;;4975951;28;20118;-88
2023/01/25 04:12:36;;;;;;;8.85;4.70;;;4.20;99.90;;;;;;4960222;28;20614;-88
2023/01/25 04:15:01;;;;;;;9.30;5.20;;;4.20;99.90;;;;;;4959814;28;20023;-87
2023/01/25 04:17:27;;;;;;;11.70;4.93;;;4.20;99.90;;;;;;4960427;28;20037;-86
2023/01/25 04:19:52;;;;;;;8.38;4.57;;;4.20;99.90;;;;;;4959751;28;20034;-87
2023/01/25 04:22:18;;;;;;;10.95;4.78;;;4.20;99.90;;;;;;4960177;28;20031;-88
2023/01/25 04:24:44;;;;;;;7.78;4.03;;;4.20;99.90;;;;;;4959935;28;20400;-87
2023/01/25 04:27:10;;;;;;;11.85;5.72;;;4.20;99.90;;;;;;4960077;28;20034;-88
2023/01/25 04:29:35;;;;;;;8.52;4.63;;;4.20;99.90;;;;;;4959555;28;20031;-88
2023/01/25 04:32:01;;;;;;;8.52;5.00;;;4.20;99.90;;;;;;4959440;28;20090;-87
2023/01/25 04:34:27;;;;;;;6.80;4.03;;;4.20;99.90;;;;;;4959894;28;20035;-88
2023/01/25 04:36:52;;;;;;;6.47;4.13;;;4.20;99.90;;;;;;4959674;28;20110;-88
2023/01/25 04:39:18;;;;;;;7.63;4.25;;;4.10;99.90;;;;;;4975642;28;20030;-88
2023/01/25 04:41:44;;;;;;;8.27;4.80;;;4.10;99.90;;;;;;4960039;28;20033;-88
2023/01/25 04:44:10;;;;;;;8.43;4.63;;;4.10;99.90;;;;;;4959491;28;20492;-88
2023/01/25 04:46:36;;;;;;;8.80;4.80;;;4.10;99.90;;;;;;4958969;28;20119;-88
2023/01/25 04:49:02;;;;;;;9.60;5.03;;;4.10;99.90;;;;;;4959189;28;20110;-87
2023/01/25 04:51:27;;;;;;;9.18;4.45;;;4.10;99.90;;;;;;4958975;28;20030;-87
2023/01/25 04:53:53;;;;;;;8.27;4.78;;;4.20;99.90;;;;;;4959065;28;20073;-88
2023/01/25 04:56:19;;;;;;;7.28;3.45;;;4.20;99.90;;;;;;4975500;28;20373;-88
2023/01/25 04:58:44;;;;;;;7.78;2.70;;;4.40;99.90;;;;;;4958748;28;20015;-88
2023/01/25 05:01:10;;;;;;;6.95;3.38;;;4.40;99.90;;;;;;4958058;28;20096;-88
2023/01/25 05:03:36;;;;;;;7.32;3.58;;;4.50;99.90;;;;;;4958554;28;20199;-89
2023/01/25 05:06:01;;;;;;;5.93;3.45;;;4.60;99.90;;;;;;4958822;28;20023;-88
2023/01/25 05:08:27;;;;;;;6.20;3.63;;;4.60;99.90;;;;;;4958973;28;20031;-88
2023/01/25 05:10:53;;;;;;;6.47;3.47;;;4.70;99.90;;;;;;4959459;28;20757;-89
2023/01/25 05:13:18;;;;;;;3.92;2.60;;;4.70;99.90;;;;;;4959345;28;20060;-89
2023/01/25 05:15:44;;;;;;;3.92;2.47;;;4.70;99.90;;;;;;4958859;28;20029;-89
2023/01/25 05:18:09;;;;;;;4.60;2.30;;;4.80;99.90;;;;;;4958886;28;20117;-89
2023/01/25 05:20:35;;;;;;;5.47;2.90;;;4.80;99.90;;;;;;4959173;28;20468;-89
2023/01/25 05:23:01;;;;;;;4.95;3.28;;;4.80;99.90;;;;;;4959044;28;20061;-88
2023/01/25 05:28:11;;;;;;;6.22;2.72;;;4.90;99.90;;;;;;4975992;28;20045;-89
2023/01/25 05:30:36;;;;;;;4.45;2.47;;;4.90;99.90;;;;;;4958655;28;20035;-89
2023/01/25 05:33:02;;;;;;;2.95;1.95;;;4.90;99.90;;;;;;4959146;28;20037;-90
2023/01/25 05:35:28;;;;;;;3.10;1.80;;;4.90;99.90;;;;;;4958651;28;20076;-90
2023/01/25 05:37:57;;;;;;;2.92;2.00;;;5.00;99.90;;;;;;4958611;28;20542;-88
2023/01/25 05:40:24;;;;;;;3.70;2.10;;;5.10;99.90;;;;;;4961079;28;20062;-88
2023/01/25 05:42:57;;;;;;;3.38;2.30;;;5.10;99.90;;;;;;4968340;28;20030;-88
2023/01/25 05:45:23;;;;;;;3.30;2.30;;;5.20;99.90;;;;;;4967775;28;20027;-88
2023/01/25 05:47:56;;;;;;;4.05;2.20;;;5.30;99.90;;;;;;4975984;28;20117;-88
2023/01/25 05:50:23;;;;;;;4.50;2.90;;;5.30;99.90;;;;;;4958086;28;20081;-88
2023/01/25 05:52:49;;;;;;;4.50;2.50;;;5.40;99.90;;;;;;4959849;28;20026;-88
2023/01/25 05:55:15;;;;;;;4.00;2.50;;;5.40;99.90;;;;;;4959396;28;20400;-87
2023/01/25 05:57:41;;;;;;;5.03;2.58;;;5.40;99.90;;;;;;4958740;28;20027;-87
2023/01/25 06:00:08;;;;;;;6.13;2.90;;;5.40;99.90;;;;;;4974976;28;20084;-88
2023/01/25 06:02:33;;;;;;;4.68;2.88;;;5.40;99.90;;;;;;4957889;28;20137;-88
2023/01/25 06:04:59;;;;;;;4.10;2.38;;;5.40;99.90;;;;;;4958221;28;20465;-89
2023/01/25 06:07:25;;;;;;;5.60;2.53;;;5.40;99.90;;;;;;4957982;28;20034;-88
2023/01/25 06:09:51;;;;;;;4.15;2.20;;;5.40;99.90;;;;;;4957784;28;20034;-89
2023/01/25 06:12:20;;;;;;;4.65;2.90;;;5.40;99.90;;;;;;4957630;28;20054;-89
2023/01/25 06:14:46;;;;;;;5.75;2.80;;;5.40;99.90;;;;;;4973306;28;20034;-88
2023/01/25 06:17:12;;;;;;;4.22;2.95;;;5.40;99.90;;;;;;4957830;28;20031;-89
2023/01/25 06:19:38;;;;;;;5.43;2.65;;;5.50;99.90;;;;;;4958355;28;20024;-89
2023/01/25 06:22:06;;;;;;;5.20;2.50;;;5.50;99.90;;;;;;4957842;28;20031;-88
2023/01/25 06:24:32;;;;;;;4.78;3.10;;;5.50;99.90;;;;;;4957716;28;20027;-88
2023/01/25 06:26:58;;;;;;;4.68;3.10;;;5.50;99.90;;;;;;4958099;28;20022;-87
2023/01/25 06:29:24;;;;;;;2.95;2.13;;;5.60;99.90;;;;;;4958393;28;20066;-88
2023/01/25 06:31:49;;;;;;;3.08;2.22;;;5.60;99.90;;;;;;4957163;28;20027;-88
2023/01/25 06:34:15;;;;;;;4.47;3.00;;;5.70;99.90;;;;;;4957384;28;20113;-88
2023/01/25 06:36:41;;;;;;;3.45;2.53;;;5.80;99.90;;;;;;4957327;28;20022;-89
2023/01/25 06:39:08;;;;;;;4.93;2.85;;;5.80;99.90;;;;;;4956770;28;20027;-88
2023/01/25 06:41:34;;;;;;;4.82;2.70;;;5.80;99.90;;;;;;4955527;28;20435;-88
2023/01/25 06:43:59;;;;;;;2.83;2.40;;;5.80;99.90;;;;;;4956846;28;20045;-88
2023/01/25 06:46:25;;;;;;;3.85;2.58;;;5.90;99.90;;;;;;4956872;28;20022;-88
2023/01/25 06:48:51;;;;;;;4.50;2.45;;;5.90;99.90;;;;;;4957142;28;20033;-88
2023/01/25 06:51:17;;;;;;;4.10;2.40;;;6.00;99.90;;;;;;4957251;28;20030;-88
2023/01/25 06:53:44;;;;;;;1.55;1.30;;;6.00;99.90;;;;;;4957496;28;20022;-88
2023/01/25 06:56:13;;;;;;;2.78;1.55;;;6.10;99.90;;;;;;4956278;28;20070;-89
2023/01/25 06:58:39;;;;;;;2.67;1.70;;;6.20;99.90;;;;;;4957445;28;20027;-88
2023/01/25 07:01:18;;;;;;;3.17;1.60;;;6.30;99.90;;;;;;4957629;28;20113;-89
2023/01/25 07:03:47;;;;;;;2.00;1.45;;;6.40;99.90;;;;;;4957678;28;20051;-87
2023/01/25 07:06:13;;;;;;;1.40;1.30;;;6.40;99.90;;;;;;4957056;28;20026;-86
2023/01/25 07:08:39;;;;;;;2.55;1.42;;;6.50;99.90;;;;;;4957753;28;20030;-89
2023/01/25 07:11:11;;;;;;;3.67;1.38;;;6.60;99.90;;;;;;4957165;28;20023;-89
2023/01/25 07:13:36;;;;;;;2.05;1.38;;;6.60;99.90;;;;;;4973023;28;20601;-90
2023/01/25 07:16:05;;;;;;;1.50;1.10;;;6.60;99.90;;;;;;4956834;28;20109;-89
2023/01/25 07:18:31;;;;;;;1.80;1.50;;;6.70;99.90;;;;;;4957352;28;20027;-88
2023/01/25 07:21:05;;;;;;;1.67;1.33;;;6.70;99.90;;;;;;4956933;28;20058;-87
2023/01/25 07:23:32;;;;;;;1.30;1.20;;;6.70;99.90;;;;;;4956524;28;20077;-88
2023/01/25 07:25:59;;;;;;;2.55;1.52;;;6.80;99.90;;;;;;4956975;28;20023;-87
2023/01/25 07:28:24;;;;;;;1.65;1.05;;;6.80;99.90;;;;;;4956732;28;20170;-89
2023/01/25 07:30:50;;;;;;;1.02;0.90;;;6.80;99.90;;;;;;4956419;28;20042;-91
2023/01/25 07:33:16;;;;;;;1.30;1.00;;;6.90;99.90;;;;;;4956289;28;20476;-87
2023/01/25 07:35:42;;;;;;;2.63;1.02;;;6.90;99.90;;;;;;4956865;28;20023;-88
2023/01/25 07:38:08;;;;;;;1.13;0.80;;;6.90;99.90;;;;;;4957201;28;20483;-88
2023/01/25 07:40:34;;;;;;;0.98;0.80;;;6.90;99.90;;;;;;4956756;28;20112;-89
2023/01/25 07:42:59;;;;;;;2.05;0.80;;;6.90;99.90;;;;;;4972181;28;20034;-89
2023/01/25 07:45:29;;;;;;;0.55;0.55;;;6.90;99.90;;;;;;4956228;28;20041;-88
2023/01/25 07:47:58;;;;;;;0.70;0.70;;;6.90;99.90;;;;;;4956276;28;20023;-87
2023/01/25 07:50:25;;;;;;;0.93;0.80;;;6.90;99.90;;;;;;4957167;28;20054;-88
2023/01/25 07:52:51;;;;;;;0.47;0.47;;;7.00;99.90;;;;;;4956923;28;20029;-88
2023/01/25 07:55:17;;;;;;;1.10;0.60;;;7.00;99.90;;;;;;4956724;28;20031;-89
2023/01/25 07:57:42;;;;;;;0.80;0.65;;;7.00;99.90;;;;;;4971851;28;20033;-89
2023/01/25 08:00:09;;;;;;;0.77;0.57;;;7.00;99.90;;;;;;4956597;28;20027;-89
2023/01/25 08:02:35;;;;;;;0.90;0.73;;;7.00;99.90;;;;;;4956472;28;20047;-89
2023/01/25 08:05:01;;;;;;;1.00;0.90;;;7.10;99.90;;;;;;4956106;28;20023;-89
2023/01/25 08:07:28;;;;;;;1.67;1.00;;;7.10;99.90;;;;;;4956025;28;20042;-89
2023/01/25 08:09:54;;;;;;;1.25;1.10;;;7.10;99.90;;;;;;4959235;28;20380;-89
2023/01/25 08:12:20;;;;;;;1.30;1.05;;;7.00;99.90;;;;;;4971539;28;20037;-88
2023/01/25 08:14:48;;;;;;;2.42;1.80;;;7.00;99.90;;;;;;4956591;28;20540;-89
2023/01/25 08:17:14;;;;;;;2.92;1.60;;;7.10;99.90;;;;;;4955776;28;20026;-89
2023/01/25 08:19:40;;;;;;;2.22;1.70;;;7.00;99.90;;;;;;4970847;28;20027;-89
2023/01/25 08:22:09;;;;;;;1.88;1.38;;;7.00;99.90;;;;;;4972426;28;20027;-89
2023/01/25 08:24:34;;;;;;;2.90;1.83;;;7.00;99.90;;;;;;4975129;28;20038;-90
2023/01/25 08:27:00;;;;;;;3.22;2.10;;;7.00;99.90;;;;;;4959425;28;20105;-88
2023/01/25 08:29:26;;;;;;;3.50;2.20;;;7.00;99.90;;;;;;4964485;28;20027;-87
2023/01/25 08:31:53;;;;;;;2.72;1.88;;;7.00;99.90;;;;;;4959988;28;20019;-88
2023/01/25 08:34:19;;;;;;;2.53;1.95;;;7.00;99.90;;;;;;4963414;28;20031;-88
2023/01/25 08:36:45;;;;;;;3.10;1.90;;;7.00;99.90;;;;;;4962604;28;20043;-90
2023/01/25 08:39:12;;;;;;;2.33;1.75;;;7.00;99.90;;;;;;4962048;28;20022;-89
2023/01/25 08:41:37;;;;;;;3.38;2.20;;;7.00;99.90;;;;;;4961871;28;20043;-89
2023/01/25 08:44:04;;;;;;;3.47;1.75;;;7.10;99.90;;;;;;4967102;28;20542;-90
2023/01/25 08:46:32;;;;;;;2.97;2.13;;;7.00;99.90;;;;;;4980498;28;20062;-89
2023/01/25 08:48:58;;;;;;;4.03;2.10;;;7.00;99.90;;;;;;4979192;28;20031;-91
2023/01/25 08:51:24;;;;;;;4.55;2.00;;;7.10;99.90;;;;;;4979056;28;20030;-89
2023/01/25 08:53:50;;;;;;;3.38;2.45;;;7.10;99.90;;;;;;4972759;28;20031;-90
2023/01/25 08:56:17;;;;;;;3.70;2.53;;;7.10;99.90;;;;;;4957483;28;20412;-89
2023/01/25 08:58:45;;;;;;;3.40;2.38;;;7.10;99.90;;;;;;4956587;29;20031;-90
2023/01/25 09:01:13;;;;;;;2.75;2.13;;;7.20;99.90;;;;;;4942731;29;20476;-90
2023/01/25 09:03:41;;;;;;;2.70;1.98;;;7.20;99.90;;;;;;4959336;28;20057;-89
2023/01/25 09:06:08;;;;;;;2.65;1.80;;;7.30;99.90;;;;;;4959797;28;20031;-89
2023/01/25 09:08:33;;;;;;;2.03;1.67;;;7.30;99.90;;;;;;4959966;28;20400;-89
2023/01/25 09:11:08;;;;;;;3.33;2.30;;;7.30;99.90;;;;;;4960273;28;20031;-89
2023/01/25 09:13:34;;;;;;;3.28;2.15;;;7.30;99.90;;;;;;4959088;28;20488;-89
2023/01/25 09:16:04;;;;;;;3.28;2.30;;;7.30;99.90;;;;;;4959922;28;20030;-89
2023/01/25 09:18:30;;;;;;;;;;;7.40;99.90;;;;;;4960169;28;20027;-89
2023/01/25 09:20:56;;;;;;;4.00;2.35;;;7.40;99.90;;;;;;4975215;28;19937;-89
2023/01/25 09:23:22;;;;;;;4.20;1.52;;;7.40;99.90;;;;;;4960751;28;20083;-90
2023/01/25 09:25:58;;;;;;;3.15;2.03;;;7.40;99.90;;;;;;4961798;28;20023;-90
2023/01/25 09:28:25;;;;;;;3.03;1.50;;;7.40;99.90;;;;;;4959938;28;20031;-89
2023/01/25 09:31:00;;;;;;;1.67;1.40;;;7.50;99.90;;;;;;4959384;28;20019;-89
2023/01/25 09:33:28;;;;;;;1.58;1.30;;;7.50;99.90;;;;;;4959329;28;20069;-89
2023/01/25 09:35:54;;;;;;;1.67;1.27;;;7.60;99.90;;;;;;4959038;28;20019;-89
2023/01/25 09:38:21;;;;;;;1.25;0.90;;;7.60;99.90;;;;;;4959128;28;20125;-90
2023/01/25 09:40:55;;;;;;;1.60;0.95;;;7.70;99.90;;;;;;4960090;28;20034;-89
2023/01/25 09:43:39;;;;;;;0.65;0.60;;;7.70;99.90;;;;;;4975414;28;20038;-90
2023/01/25 09:46:32;;;;;;;1.55;1.05;;;7.80;99.90;;;;;;4975067;28;20061;-89
2023/01/25 09:49:26;;;;;;;0.95;0.80;;;7.90;99.90;;;;;;4975104;28;20031;-89
2023/01/25 09:52:23;;;;;;;1.10;0.80;;;8.00;99.90;;;;;;4958571;28;20101;-90
2023/01/25 09:54:49;;;;;;;0.73;0.73;;;8.10;99.90;;;;;;4975208;28;20045;-90
2023/01/25 09:57:19;;;;;;;1.38;0.77;;;8.10;99.90;;;;;;4958824;28;20027;-90
2023/01/25 09:59:48;;;;;;;1.00;0.90;;;8.20;99.90;;;;;;4958536;28;20027;-90
2023/01/25 10:02:29;;;;;;;1.00;0.90;;;8.30;99.90;;;;;;4958018;28;20038;-91
2023/01/25 10:04:58;;;;;;;;;;;8.30;99.90;;;;;;4959134;28;20114;-90
2023/01/25 10:07:37;;;;;;;1.63;1.17;;;8.30;99.90;;;;;;4958683;28;19910;-91
2023/01/25 10:10:10;;;;;;;1.80;1.30;;;8.30;99.90;;;;;;4974573;28;20043;-91
2023/01/25 10:12:37;;;;;;;1.63;1.45;;;8.30;99.90;;;;;;4958669;28;20074;-90
2023/01/25 10:15:51;;;;;;;1.10;0.95;;;8.40;99.90;;;;;;4958341;28;20037;-90
2023/01/25 10:18:35;;;;;;;2.55;1.50;;;8.40;99.90;;;;;;4956494;28;20038;-91
2023/01/25 10:21:06;;;;;;;3.10;1.60;;;8.40;99.90;;;;;;4973962;28;20038;-90
2023/01/25 10:24:09;;;;;;;2.28;1.73;;;8.40;99.90;;;;;;4958520;28;20051;-90
2023/01/25 10:26:39;;;;;;;2.00;1.55;;;8.40;99.90;;;;;;4958043;28;20129;-90
2023/01/25 10:29:30;;;;;;;1.83;1.63;;;8.40;99.90;;;;;;4957611;28;20030;-91
2023/01/25 10:32:12;;;;;;;2.00;1.65;;;8.40;99.90;;;;;;4957854;28;20503;-90
2023/01/25 10:41:36;;;;;;;3.38;1.27;;;8.50;99.90;;;;;;6132837;23;20029;31
2023/01/25 10:44:23;;;;;;;1.80;1.52;;;8.50;99.90;;;;;;5012276;28;20077;-91
2023/01/25 10:47:00;;;;;;;1.80;1.50;;;8.50;99.90;;;;;;4996794;28;20040;-92
2023/01/25 10:49:40;;;;;;;2.45;1.60;;;8.40;99.90;;;;;;4980379;28;20057;-91
2023/01/25 10:52:16;;;;;;;2.00;1.60;;;8.40;99.90;;;;;;4997380;28;20018;-91
2023/01/25 10:54:42;;;;;;;2.38;1.90;;;8.40;99.90;;;;;;4997045;28;20594;-90
2023/01/25 10:57:17;;;;;;;2.25;1.60;;;8.40;99.90;;;;;;4996467;28;20042;-90
2023/01/25 10:59:49;;;;;;;2.55;1.80;;;8.40;99.90;;;;;;4995886;28;20049;-91
2023/01/25 11:02:34;;;;;;;2.60;2.20;;;8.40;99.90;;;;;;4996531;28;20022;-90
2023/01/25 11:05:18;;;;;;;2.78;2.20;;;8.30;99.90;;;;;;4977120;28;20061;-89
2023/01/25 11:07:45;;;;;;;2.95;2.30;;;8.30;99.90;;;;;;4976627;28;20042;-89
2023/01/25 11:10:35;;;;;;;4.68;3.22;;;8.30;99.90;;;;;;4978711;28;20038;-89
2023/01/25 11:13:18;;;;;;;5.18;3.60;;;8.40;99.90;;;;;;4995002;28;20042;-90
2023/01/25 11:16:17;;;;;;;7.30;4.07;;;8.30;99.90;;;;;;4978794;28;20070;-90
2023/01/25 11:18:57;;;;;;;6.63;3.50;;;8.30;99.90;;;;;;4968665;28;20038;-90
2023/01/25 11:21:25;;;;;;;4.88;3.72;;;8.30;99.90;;;;;;4994117;28;20061;-91
2023/01/25 11:24:26;;;;;;;6.97;4.07;;;8.20;99.90;;;;;;4987387;28;20149;-90
2023/01/25 11:27:20;;;;;;;9.70;5.50;;;8.20;99.90;;;;;;4945998;28;20049;-91
2023/01/25 11:30:06;;;;;;;8.40;5.20;;;8.20;99.90;;;;;;4976730;28;20034;-90
2023/01/25 11:32:32;;;;;;;8.55;5.85;;;8.20;99.90;;;;;;4976856;28;20030;-90
2023/01/25 11:34:58;;;;;;;9.98;5.40;;;8.10;99.90;;;;;;4976593;28;20025;-90
2023/01/25 11:38:02;;;;;;;9.32;5.20;;;8.10;99.90;;;;;;4976302;28;20034;-89
2023/01/25 11:41:13;;;;;;;11.55;5.47;;;8.10;99.90;;;;;;4976536;28;20019;-88
2023/01/25 11:44:20;;;;;;;9.60;6.32;;;8.10;99.90;;;;;;4936891;29;20043;-88
2023/01/25 11:47:10;;;;;;;7.75;4.43;;;8.00;99.90;;;;;;4938058;29;20088;-88
2023/01/25 11:49:59;;;;;;;14.80;6.40;;;8.00;99.90;;;;;;4932666;29;20032;-90
2023/01/25 11:52:55;;;;;;;8.40;4.40;;;8.00;99.90;;;;;;4923604;29;20032;-90
2023/01/25 11:55:25;;;;;;;8.05;5.15;;;8.00;99.90;;;;;;4936115;29;20134;-90
2023/01/25 11:58:28;;;;;;;8.77;5.20;;;8.00;99.90;;;;;;4934788;29;20024;-90
2023/01/25 12:01:09;;;;;;;7.95;5.10;;;8.00;99.90;;;;;;4933857;29;20048;-92
2023/01/25 12:04:31;;;;;;;11.38;5.50;;;8.00;99.90;;;;;;4934423;29;20044;-92
2023/01/25 12:07:37;;;;;;;14.27;7.40;;;8.10;99.90;;;;;;4895550;29;20075;-90
2023/01/25 12:10:14;;;;;;;12.70;5.65;;;8.10;99.90;;;;;;4896041;29;20047;-91
2023/01/25 12:12:49;;;;;;;16.80;8.07;;;8.10;99.90;;;;;;4899278;29;20033;-90
2023/01/25 12:15:35;;;;;;;18.17;8.82;;;8.10;99.90;;;;;;4901461;29;20068;-90
2023/01/25 12:18:19;;;;;;;16.52;8.95;;;8.10;99.90;;;;;;4897386;29;20036;-92
2023/01/25 12:20:48;;;;;;;19.83;9.48;;;8.00;99.90;;;;;;4897027;29;20534;-89
2023/01/25 12:23:31;;;;;;;19.42;9.98;;;8.00;99.90;;;;;;4899373;29;20115;-90
2023/01/25 12:26:18;;;;;;;20.85;10.13;;;8.00;99.90;;;;;;4903118;29;20040;-90
2023/01/25 12:28:56;;;;;;;24.58;11.27;;;7.90;99.90;;;;;;4902057;29;20047;-89
2023/01/25 12:31:44;;;;;;;26.85;12.85;;;7.90;99.90;;;;;;4897858;29;20029;-91
2023/01/25 12:34:17;;;;;;;26.70;12.68;;;7.90;99.90;;;;;;4909654;29;20036;-89
2023/01/25 12:36:48;;;;;;;29.27;12.63;;;7.90;99.90;;;;;;4908742;28;20135;-89
2023/01/25 12:39:35;;;;;;;20.73;11.77;;;7.90;99.90;;;;;;4978702;28;20019;-90
2023/01/25 12:42:25;;;;;;;21.98;11.27;;;7.90;99.90;;;;;;4979347;28;20065;-89
2023/01/25 12:45:02;;;;;;;22.35;11.35;;;7.90;99.90;;;;;;4979491;28;20038;-91
2023/01/25 12:47:40;;;;;;;22.10;9.93;;;7.80;99.90;;;;;;4979561;28;20022;-91
2023/01/25 12:50:14;;;;;;;22.25;10.65;;;7.90;99.90;;;;;;4979045;28;20033;-92
2023/01/25 12:52:46;;;;;;;21.48;10.15;;;7.80;99.90;;;;;;4979728;28;20026;-92
2023/01/25 12:55:16;;;;;;;23.88;11.48;;;7.80;99.90;;;;;;4979409;28;20034;-91
2023/01/25 12:57:44;;;;;;;25.58;11.45;;;7.80;99.90;;;;;;4979656;28;20022;-91
2023/01/25 13:00:28;;;;;;;24.55;11.90;;;7.80;99.90;;;;;;4978642;28;20030;-92
2023/01/25 13:03:16;;;;;;;21.02;10.63;;;7.80;99.90;;;;;;4995107;28;20030;-92
2023/01/25 13:05:52;;;;;;;21.90;10.18;;;7.80;99.90;;;;;;4995042;28;20188;-92
2023/01/25 13:08:23;;;;;;;18.52;9.20;;;7.80;99.90;;;;;;4993867;28;20038;-92
2023/01/25 13:11:19;;;;;;;23.40;11.13;;;7.80;99.90;;;;;;4990044;28;20077;-90
2023/01/25 13:13:45;;;;;;;23.92;11.25;;;7.80;99.90;;;;;;4921282;29;20039;-90
2023/01/25 13:16:29;;;;;;;25.77;12.70;;;7.80;99.90;;;;;;4936041;29;20048;-90
2023/01/25 13:18:56;;;;;;;22.30;11.20;;;7.80;99.90;;;;;;4919958;29;20078;-90